Time;durP1;ratioP1;P1;durP2;ratioP2;P2;SDS_P1;SDS_P2;PMS_P1;PMS_P2;Temp;Humidity;BMP_temperature;BMP_pressure;BME280_temperature;BME280_humidity;BME280_pressure;Samples;Min_cycle;Max_cycle;Signal;HPM_P1;HPM_P2
2022/11/02 00:01:15;;;;;;;8.73;3.25;;;;;;;10.49;100.00;100860.94;5053200;28;20833;-76
2022/11/02 00:03:41;;;;;;;8.25;3.42;;;;;;;10.55;100.00;100871.47;5043031;28;20194;-76
2022/11/02 00:06:08;;;;;;;7.57;3.47;;;;;;;10.57;100.00;100874.13;5041763;28;20210;-77
2022/11/02 00:08:35;;;;;;;11.45;3.55;;;;;;;10.45;100.00;100872.75;5055192;28;20221;-77
2022/11/02 00:11:01;;;;;;;7.97;3.47;;;;;;;10.40;100.00;100870.25;5055218;28;20197;-76
2022/11/02 00:13:28;;;;;;;8.85;2.80;;;;;;;10.28;100.00;100867.09;5040402;28;20218;-77
2022/11/02 00:15:56;;;;;;;9.38;3.25;;;;;;;10.13;100.00;100864.03;5036495;28;20212;-77
2022/11/02 00:18:22;;;;;;;6.97;3.65;;;;;;;10.18;100.00;100869.25;5036750;28;20526;-77
2022/11/02 00:20:49;;;;;;;11.05;3.63;;;;;;;10.08;100.00;100878.56;5033802;28;20659;-76
2022/11/02 00:23:16;;;;;;;6.45;2.95;;;;;;;10.07;100.00;100876.81;5034274;28;20651;-75
2022/11/02 00:25:47;;;;;;;10.98;3.28;;;;;;;9.99;100.00;100869.91;5032378;28;20572;-77
2022/11/02 00:28:14;;;;;;;8.02;3.17;;;;;;;9.85;100.00;100866.81;5032716;28;20269;-77
2022/11/02 00:30:41;;;;;;;5.05;3.50;;;;;;;9.66;100.00;100874.63;5032498;28;20227;-77
2022/11/02 00:33:09;;;;;;;8.98;3.20;;;;;;;9.62;100.00;100877.50;5041615;28;20308;-77
2022/11/02 00:35:37;;;;;;;6.80;2.70;;;;;;;9.54;100.00;100875.03;5033250;28;20197;-78
2022/11/02 00:38:04;;;;;;;9.85;3.53;;;;;;;9.49;100.00;100882.38;5032597;28;20216;-76
2022/11/02 00:40:31;;;;;;;9.35;3.22;;;;;;;9.42;100.00;100879.03;5032148;28;20236;-78
2022/11/02 00:42:58;;;;;;;7.07;3.25;;;;;;;9.38;100.00;100869.28;5033337;28;20289;-77
2022/11/02 00:45:24;;;;;;;8.32;3.22;;;;;;;9.24;100.00;100872.44;5032283;28;20206;-76
2022/11/02 00:47:51;;;;;;;7.78;3.75;;;;;;;9.23;100.00;100876.06;5034647;28;20206;-78
2022/11/02 00:50:19;;;;;;;8.50;3.40;;;;;;;9.19;100.00;100867.22;5045921;28;20237;-76
2022/11/02 00:52:45;;;;;;;7.78;3.88;;;;;;;9.12;100.00;100870.16;5051731;28;20273;-77
2022/11/02 00:55:13;;;;;;;8.25;3.70;;;;;;;9.14;100.00;100865.63;5063441;28;20224;-75
2022/11/02 00:57:41;;;;;;;7.07;3.45;;;;;;;9.07;100.00;100878.38;5053127;28;20225;-77
2022/11/02 01:00:09;;;;;;;6.75;3.90;;;;;;;9.08;100.00;100868.50;5050921;28;20239;-77
2022/11/02 01:02:37;;;;;;;8.75;3.67;;;;;;;9.08;100.00;100866.66;5051923;28;20311;-76
2022/11/02 01:05:04;;;;;;;8.52;4.05;;;;;;;9.15;100.00;100880.78;5052337;28;20243;-77
2022/11/02 01:07:32;;;;;;;7.68;3.65;;;;;;;9.18;100.00;100876.22;5045653;28;20676;-76
2022/11/02 01:09:59;;;;;;;7.28;3.80;;;;;;;9.05;100.00;100873.97;5032437;28;20719;-76
2022/11/02 01:12:25;;;;;;;9.23;4.80;;;;;;;9.09;100.00;100875.59;5038022;28;20206;-78
2022/11/02 01:14:52;;;;;;;12.13;4.00;;;;;;;8.97;100.00;100877.75;5049624;28;20218;-77
2022/11/02 01:17:19;;;;;;;13.38;3.50;;;;;;;8.95;100.00;100867.97;5060654;28;20252;-79
2022/11/02 01:19:46;;;;;;;6.20;3.60;;;;;;;8.79;100.00;100870.25;5074604;28;20290;-76
2022/11/02 01:22:12;;;;;;;13.63;4.07;;;;;;;8.87;100.00;100870.06;5069945;28;20292;-77
2022/11/02 01:24:40;;;;;;;6.55;3.85;;;;;;;8.87;100.00;100870.91;5069496;28;20205;-77
2022/11/02 01:27:07;;;;;;;7.72;3.53;;;;;;;8.79;100.00;100872.94;5067973;28;20301;-77
2022/11/02 01:29:33;;;;;;;7.70;2.95;;;;;;;8.80;100.00;100874.72;5069310;28;20240;-77
2022/11/02 01:32:00;;;;;;;6.47;3.28;;;;;;;8.75;100.00;100876.66;5070420;28;20288;-77
2022/11/02 01:34:26;;;;;;;6.20;2.97;;;;;;;8.75;100.00;100865.91;5045227;28;20225;-79
2022/11/02 01:36:54;;;;;;;7.45;3.85;;;;;;;8.72;100.00;100863.31;5039221;28;20201;-77
2022/11/02 01:39:20;;;;;;;8.85;3.53;;;;;;;8.71;100.00;100866.94;5017895;28;20247;-77
2022/11/02 01:41:51;;;;;;;7.45;3.40;;;;;;;8.67;100.00;100867.97;5019376;28;20273;-77
2022/11/02 01:44:28;;;;;;;4.97;2.90;;;;;;;8.67;100.00;100862.59;5021362;28;20198;-78
2022/11/02 01:46:59;;;;;;;5.07;2.60;;;;;;;8.64;100.00;100859.97;5029482;28;20193;-78
2022/11/02 01:49:26;;;;;;;6.50;3.05;;;;;;;8.62;100.00;100852.00;5052901;28;20694;-77
2022/11/02 01:51:59;;;;;;;8.30;3.83;;;;;;;8.76;100.00;100856.94;5037527;28;20209;-78
2022/11/02 01:54:29;;;;;;;7.03;3.53;;;;;;;8.58;100.00;100853.00;5036628;28;20596;-77
2022/11/02 01:57:00;;;;;;;5.05;3.00;;;;;;;8.53;100.00;100858.50;5037562;28;20204;-77
2022/11/02 01:59:31;;;;;;;7.07;4.00;;;;;;;8.53;100.00;100849.59;5035967;28;20243;-76
2022/11/02 02:01:57;;;;;;;9.15;3.13;;;;;;;8.52;100.00;100846.03;5036110;28;20293;-77
2022/11/02 02:04:26;;;;;;;9.60;3.22;;;;;;;8.52;100.00;100847.81;5036219;28;20202;-77
2022/11/02 02:06:57;;;;;;;5.43;3.33;;;;;;;8.53;100.00;100849.59;5043441;28;20292;-78
2022/11/02 02:09:24;;;;;;;7.90;3.30;;;;;;;8.51;100.00;100841.56;5051951;28;20233;-76
2022/11/02 02:11:50;;;;;;;5.20;2.80;;;;;;;8.55;100.00;100845.94;5043775;28;20202;-77
2022/11/02 02:14:20;;;;;;;6.63;2.75;;;;;;;8.60;100.00;100844.91;5057504;28;20244;-76
2022/11/02 02:17:04;;;;;;;5.25;2.97;;;;;;;8.54;100.00;100838.78;5055192;28;20208;-78
2022/11/02 02:19:40;;;;;;;8.60;3.40;;;;;;;8.52;100.00;100831.69;5058084;28;20236;-77
2022/11/02 02:22:38;;;;;;;7.22;3.33;;;;;;;8.46;100.00;100834.59;5052967;28;20287;-77
2022/11/02 02:25:23;;;;;;;8.50;3.20;;;;;;;8.32;100.00;100833.16;5042609;28;20222;-75
2022/11/02 02:28:06;;;;;;;8.27;3.33;;;;;;;8.41;100.00;100831.13;5038847;28;20264;-78
2022/11/02 02:30:39;;;;;;;10.13;3.20;;;;;;;8.35;100.00;100826.81;5040103;28;20231;-78
2022/11/02 02:33:11;;;;;;;6.82;3.85;;;;;;;8.22;100.00;100812.00;5051525;28;20185;-79
2022/11/02 02:35:42;;;;;;;9.45;4.32;;;;;;;8.31;100.00;100817.09;5039388;28;20223;-76
2022/11/02 02:38:13;;;;;;;6.55;4.25;;;;;;;8.42;100.00;100815.00;5048565;28;20730;-76
2022/11/02 02:40:46;;;;;;;12.32;4.13;;;;;;;8.44;100.00;100815.84;5059474;28;20235;-77
2022/11/02 02:43:18;;;;;;;12.00;4.50;;;;;;;8.42;100.00;100815.00;5054911;28;20276;-76
2022/11/02 02:45:49;;;;;;;8.75;3.58;;;;;;;8.58;100.00;100817.22;5063479;28;20213;-77
2022/11/02 02:48:19;;;;;;;10.90;3.80;;;;;;;8.74;100.00;100822.06;5063486;28;20211;-78
2022/11/02 02:50:48;;;;;;;9.05;4.15;;;;;;;8.81;100.00;100814.69;5061340;28;20291;-77
2022/11/02 02:53:18;;;;;;;10.23;3.88;;;;;;;8.79;100.00;100821.91;5039001;28;20213;-76
2022/11/02 02:55:47;;;;;;;10.50;4.28;;;;;;;8.81;100.00;100819.19;5034744;28;20216;-77
2022/11/02 02:58:20;;;;;;;8.95;3.78;;;;;;;8.76;100.00;100814.84;5035501;28;20581;-77
2022/11/02 03:00:47;;;;;;;5.18;3.10;;;;;;;8.81;100.00;100820.06;5036771;28;20206;-76
2022/11/02 03:03:18;;;;;;;5.90;3.40;;;;;;;8.73;100.00;100811.41;5034919;28;20198;-77
2022/11/02 03:06:00;;;;;;;6.97;3.58;;;;;;;8.89;100.00;100812.66;5034428;28;20204;-76
2022/11/02 03:08:27;;;;;;;6.40;3.72;;;;;;;8.98;100.00;100809.69;5034705;28;20293;-76
2022/11/02 03:11:03;;;;;;;14.52;3.60;;;;;;;9.17;100.00;100812.63;5036662;28;20197;-77
2022/11/02 03:13:46;;;;;;;10.93;3.50;;;;;;;9.32;100.00;100823.81;5034783;28;20284;-77
2022/11/02 03:16:27;;;;;;;10.57;3.28;;;;;;;9.37;100.00;100827.22;5034978;28;20277;-77
2022/11/02 03:19:03;;;;;;;9.07;3.40;;;;;;;9.45;100.00;100832.34;5015190;28;20222;-76
2022/11/02 03:21:36;;;;;;;4.65;2.85;;;;;;;9.49;100.00;100817.84;5015446;28;20193;-77
2022/11/02 03:24:08;;;;;;;5.47;3.25;;;;;;;9.56;100.00;100822.97;5014383;28;20189;-77
2022/11/02 03:26:43;;;;;;;9.65;3.20;;;;;;;9.60;100.00;100824.63;5019370;28;20194;-77
2022/11/02 03:29:14;;;;;;;13.15;4.57;;;;;;;9.62;100.00;100812.94;5053701;28;20307;-75
2022/11/02 03:31:46;;;;;;;9.55;3.10;;;;;;;9.65;100.00;100819.06;5053958;28;20570;-76
2022/11/02 03:34:20;;;;;;;10.65;3.42;;;;;;;9.76;100.00;100813.34;5046651;28;20209;-76
2022/11/02 03:36:51;;;;;;;6.88;3.05;;;;;;;9.77;100.00;100812.41;5053855;28;20201;-76
2022/11/02 03:39:22;;;;;;;6.82;3.75;;;;;;;9.77;100.00;100812.41;5053758;28;20223;-76
2022/11/02 03:41:52;;;;;;;11.00;4.25;;;;;;;9.76;100.00;100816.88;5054267;28;20276;-76
2022/11/02 03:44:24;;;;;;;5.82;3.33;;;;;;;9.74;100.00;100826.81;5048564;28;20204;-78
2022/11/02 03:46:58;;;;;;;7.20;3.72;;;;;;;9.76;100.00;100830.34;5033864;28;20191;-78
2022/11/02 03:49:27;;;;;;;6.10;3.33;;;;;;;9.85;100.00;100839.03;5033433;28;20238;-78
2022/11/02 03:51:56;;;;;;;5.30;3.35;;;;;;;9.91;100.00;100833.44;5032967;28;20233;-76
2022/11/02 03:54:37;;;;;;;7.80;4.18;;;;;;;9.98;100.00;100835.84;5038755;28;20306;-76
2022/11/02 03:57:07;;;;;;;8.75;3.85;;;;;;;10.02;100.00;100837.50;5051174;28;20186;-77
2022/11/02 03:59:35;;;;;;;8.50;2.95;;;;;;;10.02;100.00;100832.13;5052910;28;20229;-77
2022/11/02 04:02:02;;;;;;;8.50;4.13;;;;;;;9.95;100.00;100844.03;5053958;28;20208;-76
2022/11/02 04:04:28;;;;;;;5.82;3.80;;;;;;;10.14;100.00;100848.75;5054117;28;20662;-75
2022/11/02 04:06:56;;;;;;;6.43;3.75;;;;;;;10.11;100.00;100849.75;5055119;28;20296;-77
2022/11/02 04:09:23;;;;;;;7.45;3.75;;;;;;;10.17;100.00;100851.31;5053471;28;20589;-75
2022/11/02 04:14:37;;;;;;;8.68;3.85;;;;;;;10.21;100.00;100856.53;5051501;28;20212;-77
2022/11/02 04:19:48;;;;;;;6.03;3.50;;;;;;;10.27;100.00;100865.34;5041255;28;20279;-77
2022/11/02 04:27:43;;;;;;;7.15;3.85;;;;;;;10.42;100.00;100878.25;5042593;28;20555;-76
2022/11/02 04:30:12;;;;;;;8.65;4.18;;;;;;;10.47;100.00;100880.75;5055276;28;20235;-76
2022/11/02 04:35:22;;;;;;;6.07;3.70;;;;;;;10.52;100.00;100868.91;4985375;28;20283;-77
2022/11/02 04:40:32;;;;;;;9.70;4.20;;;;;;;10.34;100.00;100866.91;4984903;28;20234;-74
2022/11/02 04:42:59;;;;;;;8.55;3.80;;;;;;;10.19;100.00;100877.25;4983430;28;20212;-75
2022/11/02 04:45:27;;;;;;;9.10;4.55;;;;;;;10.10;100.00;100890.16;4973183;28;20711;-76
2022/11/02 04:47:59;;;;;;;9.05;4.00;;;;;;;10.09;100.00;100883.91;4982258;28;20561;-81
2022/11/02 04:50:26;;;;;;;5.55;4.13;;;;;;;10.03;100.00;100879.59;4986429;28;20220;-79
2022/11/02 04:52:55;;;;;;;8.45;4.80;;;;;;;9.96;100.00;100896.03;4981854;28;20296;-79
2022/11/02 04:55:22;;;;;;;11.05;5.07;;;;;;;9.92;100.00;100889.00;4980286;28;20220;-78
2022/11/02 04:57:49;;;;;;;9.02;5.05;;;;;;;9.92;100.00;100891.69;4975543;28;20204;-77
2022/11/02 05:00:16;;;;;;;6.57;4.35;;;;;;;9.85;100.00;100887.47;4971281;28;20235;-79
2022/11/02 05:02:46;;;;;;;10.68;5.22;;;;;;;9.73;100.00;100895.00;4971585;28;20208;-78
2022/11/02 05:05:13;;;;;;;10.40;5.15;;;;;;;9.60;100.00;100905.28;4970677;28;20212;-79
2022/11/02 05:07:39;;;;;;;10.00;4.90;;;;;;;9.40;100.00;100905.94;4962855;28;20247;-77
2022/11/02 05:10:06;;;;;;;12.23;4.50;;;;;;;9.36;100.00;100907.00;4961474;28;20243;-77
2022/11/02 05:12:33;;;;;;;10.50;4.28;;;;;;;9.44;100.00;100905.88;5000868;28;20198;-78
2022/11/02 05:14:59;;;;;;;11.20;4.80;;;;;;;9.47;100.00;100911.13;5035309;28;20311;-77
2022/11/02 05:17:26;;;;;;;10.50;4.20;;;;;;;9.38;100.00;100906.94;5028949;28;20198;-79
2022/11/02 05:19:54;;;;;;;12.55;4.53;;;;;;;9.41;100.00;100904.16;5039934;28;20213;-80
2022/11/02 05:22:21;;;;;;;9.80;4.20;;;;;;;9.67;100.00;100905.09;5053030;28;20211;-80
2022/11/02 05:24:48;;;;;;;7.63;4.55;;;;;;;9.57;100.00;100907.22;5053674;28;20193;-77
2022/11/02 05:27:15;;;;;;;10.85;3.85;;;;;;;9.62;100.00;100912.44;5051543;28;20571;-78
2022/11/02 05:29:41;;;;;;;12.98;4.38;;;;;;;9.55;100.00;100901.00;5052742;28;20656;-77
2022/11/02 05:32:08;;;;;;;6.93;5.40;;;;;;;9.55;100.00;100914.47;5038196;28;20285;-78
2022/11/02 05:34:34;;;;;;;9.63;4.30;;;;;;;9.46;100.00;100922.81;5032785;28;20631;-76
2022/11/02 05:37:02;;;;;;;11.25;5.05;;;;;;;9.44;100.00;100920.19;5032201;28;20228;-78
2022/11/02 05:39:29;;;;;;;9.45;4.25;;;;;;;9.37;100.00;100924.00;5032135;28;20247;-77
2022/11/02 05:41:55;;;;;;;14.27;4.32;;;;;;;9.42;100.00;100929.22;5031564;28;20200;-76
2022/11/02 05:44:22;;;;;;;13.30;4.50;;;;;;;9.37;100.00;100935.63;5032593;28;20204;-77
2022/11/02 05:46:48;;;;;;;14.00;4.18;;;;;;;9.32;100.00;100934.91;5032902;28;20698;-77
2022/11/02 05:49:15;;;;;;;13.07;4.32;;;;;;;9.34;100.00;100933.06;5033354;28;20222;-78
2022/11/02 05:51:43;;;;;;;9.32;4.25;;;;;;;9.27;100.00;100931.50;5047504;28;20202;-78
2022/11/02 05:54:11;;;;;;;12.40;5.03;;;;;;;9.23;100.00;100932.50;5034260;28;20198;-79
2022/11/02 05:56:38;;;;;;;10.00;4.55;;;;;;;9.13;100.00;100934.56;5034108;28;20198;-79
2022/11/02 05:59:04;;;;;;;13.25;5.53;;;;;;;9.07;100.00;100920.47;5032602;28;20233;-79
2022/11/02 06:01:31;;;;;;;9.35;5.35;;;;;;;9.01;100.00;100932.28;5032274;28;20205;-79
2022/11/02 06:03:58;;;;;;;11.00;4.65;;;;;;;9.05;100.00;100941.16;5033381;28;20320;-78
2022/11/02 06:06:24;;;;;;;9.27;4.05;;;;;;;8.95;100.00;100941.41;5033688;28;20578;-77
2022/11/02 06:08:51;;;;;;;11.65;4.90;;;;;;;9.01;100.00;100942.16;5054459;28;20224;-80
2022/11/02 06:11:20;;;;;;;9.82;4.68;;;;;;;9.07;100.00;100948.22;5048395;28;20601;-78
2022/11/02 06:13:50;;;;;;;10.85;4.63;;;;;;;9.06;100.00;100953.63;5035414;28;20201;-77
2022/11/02 06:16:17;;;;;;;10.35;4.70;;;;;;;9.01;100.00;100943.03;5037957;28;20259;-80
2022/11/02 06:18:44;;;;;;;9.45;4.70;;;;;;;9.00;100.00;100953.81;5037707;28;20226;-79
2022/11/02 06:21:11;;;;;;;15.20;5.10;;;;;;;8.91;100.00;100953.19;5037282;28;20213;-81
2022/11/02 06:23:38;;;;;;;11.20;4.95;;;;;;;8.96;100.00;100961.97;5038291;28;20212;-78
2022/11/02 06:26:05;;;;;;;12.13;4.95;;;;;;;8.91;100.00;100963.94;5037002;28;20212;-79
2022/11/02 06:28:32;;;;;;;14.02;4.95;;;;;;;8.94;100.00;100966.50;5036669;28;20201;-77
2022/11/02 06:30:59;;;;;;;10.52;4.47;;;;;;;9.19;100.00;100973.84;5037650;28;20224;-78
2022/11/02 06:33:26;;;;;;;14.02;5.35;;;;;;;9.11;100.00;100968.72;5037073;28;20687;-79
2022/11/02 06:35:54;;;;;;;15.32;4.88;;;;;;;9.26;100.00;100977.22;5035545;28;20218;-81
2022/11/02 06:38:21;;;;;;;8.88;4.55;;;;;;;9.29;100.00;100983.34;5040764;28;20265;-80
2022/11/02 06:40:55;;;;;;;12.30;5.15;;;;;;;9.31;100.00;100983.31;5036329;28;20206;-79
2022/11/02 06:43:21;;;;;;;11.23;5.50;;;;;;;9.33;100.00;100985.03;5036604;28;20578;-80
2022/11/02 06:45:49;;;;;;;11.57;5.10;;;;;;;9.31;100.00;100984.19;5041457;28;20579;-78
2022/11/02 06:48:16;;;;;;;11.40;4.45;;;;;;;9.35;100.00;100995.75;5048839;28;20292;-78
2022/11/02 06:50:43;;;;;;;11.65;5.05;;;;;;;9.39;100.00;100992.91;5050280;28;20197;-79
2022/11/02 06:53:09;;;;;;;11.00;4.88;;;;;;;9.47;100.00;101006.09;5050012;28;20297;-81
2022/11/02 06:55:36;;;;;;;16.40;4.75;;;;;;;9.56;100.00;101003.13;5053278;28;20230;-81
2022/11/02 06:58:03;;;;;;;12.05;4.53;;;;;;;9.51;100.00;101009.59;5055082;28;20202;-82
2022/11/02 07:00:30;;;;;;;6.30;3.88;;;;;;;9.51;100.00;101009.59;5055369;28;20298;-79
2022/11/02 07:03:02;;;;;;;6.90;3.80;;;;;;;9.44;100.00;101014.28;5044944;28;20214;-78
2022/11/02 07:05:29;;;;;;;13.65;4.30;;;;;;;9.40;100.00;101016.16;5038827;28;20204;-79
2022/11/02 07:07:56;;;;;;;9.65;4.38;;;;;;;9.43;100.00;101025.97;5037755;28;20209;-82
2022/11/02 07:10:23;;;;;;;13.65;4.60;;;;;;;9.81;100.00;101022.09;5037481;28;20281;-79
2022/11/02 07:12:52;;;;;;;17.33;6.32;;;;;;;10.35;100.00;101031.06;5036863;28;20198;-79
2022/11/02 07:15:19;;;;;;;10.38;4.07;;;;;;;10.88;100.00;101027.41;5035907;28;20221;-79
2022/11/02 07:17:46;;;;;;;6.82;3.28;;;;;;;11.32;100.00;101023.97;5041935;28;20216;-77
2022/11/02 07:20:14;;;;;;;8.23;3.80;;;;;;;11.50;100.00;101028.66;5044927;28;20290;-79
2022/11/02 07:22:41;;;;;;;8.13;3.15;;;;;;;11.79;100.00;101029.31;5046303;28;20691;-79
2022/11/02 07:25:08;;;;;;;10.32;4.15;;;;;;;12.21;100.00;101032.13;5044697;28;20198;-77
2022/11/02 07:27:38;;;;;;;10.25;4.18;;;;;;;12.48;100.00;101031.84;5040292;28;20261;-79
2022/11/02 07:30:06;;;;;;;9.07;4.63;;;;;;;13.03;100.00;101023.13;5039662;28;20222;-79
2022/11/02 07:32:39;;;;;;;9.10;3.67;;;;;;;13.18;100.00;101024.25;5040587;28;20205;-80
2022/11/02 07:35:06;;;;;;;6.85;4.05;;;;;;;13.54;100.00;101027.06;5049267;28;20221;-80
2022/11/02 07:37:35;;;;;;;7.60;3.55;;;;;;;14.06;100.00;101020.94;5049224;28;20201;-80
2022/11/02 07:40:01;;;;;;;7.07;3.25;;;;;;;14.23;100.00;101028.25;5053816;28;20256;-81
2022/11/02 07:42:28;;;;;;;9.10;3.67;;;;;;;13.95;100.00;101024.19;5058464;28;20210;-79
2022/11/02 07:44:54;;;;;;;11.60;3.72;;;;;;;14.44;100.00;101026.25;5058587;28;20261;-80
2022/11/02 07:47:21;;;;;;;5.28;3.08;;;;;;;14.87;100.00;101034.88;5049552;28;20265;-79
2022/11/02 07:49:47;;;;;;;8.80;3.10;;;;;;;15.00;100.00;101022.41;5037598;28;20226;-79
2022/11/02 07:52:14;;;;;;;7.93;3.70;;;;;;;15.13;100.00;101020.81;5037810;28;20589;-79
2022/11/02 07:54:42;;;;;;;7.70;3.08;;;;;;;16.07;100.00;101028.25;5035487;28;20202;-79
2022/11/02 07:57:08;;;;;;;10.70;3.85;;;;;;;15.92;100.00;101032.72;5035113;28;20205;-78
2022/11/02 07:59:36;;;;;;;8.45;3.72;;;;;;;15.45;100.00;101029.00;5044102;28;20240;-79
2022/11/02 08:02:02;;;;;;;11.88;3.47;;;;;;;15.19;100.00;101035.84;5045657;28;20212;-78
2022/11/02 08:04:29;;;;;;;14.38;5.70;;;;;;;15.46;100.00;101035.28;5038703;28;20277;-80
2022/11/02 08:06:58;;;;;;;8.82;3.47;;;;;;;16.03;100.00;101043.84;5037981;28;20289;-79
2022/11/02 08:09:24;;;;;;;12.15;3.38;;;;;;;15.87;100.00;101045.69;5036030;28;20226;-78
2022/11/02 08:11:52;;;;;;;8.30;3.13;;;;;;;15.98;100.00;101049.53;5035351;28;20629;-78
2022/11/02 08:14:19;;;;;;;10.25;3.78;;;;;;;16.22;100.00;101040.94;5036148;28;20208;-79
2022/11/02 08:16:47;;;;;;;8.70;2.90;;;;;;;16.51;100.00;101060.06;5036400;28;20222;-81
2022/11/02 08:19:13;;;;;;;12.00;3.65;;;;;;;16.84;100.00;101049.03;5035424;28;20232;-79
2022/11/02 08:21:40;;;;;;;7.68;2.58;;;;;;;16.75;100.00;101058.59;5036217;28;20655;-78
2022/11/02 08:24:07;;;;;;;6.20;2.40;;;;;;;16.83;100.00;101063.59;5035864;28;20208;-77
2022/11/02 08:26:34;;;;;;;9.32;3.00;;;;;;;15.56;100.00;101055.56;5034744;28;20263;-78
2022/11/02 08:29:02;;;;;;;10.77;3.63;;;;;;;15.04;100.00;101056.56;5033893;28;20228;-78
2022/11/02 08:31:28;;;;;;;6.45;2.78;;;;;;;15.36;100.00;101056.66;5034601;28;20212;-78
2022/11/02 08:33:57;;;;;;;6.63;2.50;;;;;;;16.32;100.00;101072.03;5034886;28;20370;-79
2022/11/02 08:36:24;;;;;;;12.40;4.05;;;;;;;16.79;100.00;101075.59;5034746;28;20225;-78
2022/11/02 08:38:50;;;;;;;5.05;2.35;;;;;;;16.99;100.00;101074.44;5034106;28;20321;-80
2022/11/02 08:41:17;;;;;;;7.97;3.70;;;;;;;17.08;100.00;101068.41;5033736;28;20699;-77
2022/11/02 08:43:43;;;;;;;5.55;2.35;;;;;;;17.06;100.00;101064.91;5034248;28;20309;-78
2022/11/02 08:46:11;;;;;;;8.13;2.30;;;;;;;17.40;100.00;101065.50;5034390;28;20198;-79
2022/11/02 08:48:38;;;;;;;6.65;2.38;;;;;;;17.27;100.00;101063.56;5035073;28;20472;-78
2022/11/02 08:51:07;;;;;;;8.77;2.57;;;;;;;17.04;100.00;101059.56;5035581;28;20202;-80
2022/11/02 08:53:34;;;;;;;9.57;2.63;;;;;;;16.85;100.00;101064.41;5034464;28;20541;-79
2022/11/02 08:56:00;;;;;;;6.93;3.17;;;;;;;16.74;100.00;101058.69;5033691;28;20225;-78
2022/11/02 08:58:27;;;;;;;7.38;2.30;;;;;;;16.85;100.00;101054.38;5034525;28;20206;-79
2022/11/02 09:00:54;;;;;;;5.80;2.22;;;;;;;16.65;100.00;101057.41;5033453;28;20217;-78
2022/11/02 09:03:23;;;;;;;6.70;2.90;;;;;;;16.81;100.00;101043.78;5033600;28;20206;-78
2022/11/02 09:05:50;;;;;;;7.72;2.90;;;;;;;16.75;100.00;101055.00;5033450;28;20198;-79
2022/11/02 09:08:19;;;;;;;6.80;2.50;;;;;;;17.04;100.00;101047.81;5036587;28;20212;-78
2022/11/02 09:10:46;;;;;;;6.15;2.42;;;;;;;16.98;100.00;101054.50;5047623;28;20309;-77
2022/11/02 09:13:16;;;;;;;5.78;2.53;;;;;;;16.60;100.00;101062.25;5050209;28;20205;-79
2022/11/02 09:15:42;;;;;;;5.32;1.90;;;;;;;17.15;99.91;101063.47;5053405;28;20308;-76
2022/11/02 09:18:09;;;;;;;6.65;2.10;;;;;;;17.63;94.24;101067.63;5052542;28;20229;-79
2022/11/02 09:20:37;;;;;;;4.93;2.20;;;;;;;18.46;87.58;101067.66;5042348;28;20309;-78
2022/11/02 09:23:04;;;;;;;7.22;2.42;;;;;;;17.68;92.25;101057.34;5033797;28;20593;-78
2022/11/02 09:25:30;;;;;;;7.78;2.60;;;;;;;17.51;91.31;101065.72;5034283;28;20206;-77
2022/11/02 09:27:57;;;;;;;10.48;2.50;;;;;;;17.74;88.74;101063.34;5035443;28;20281;-80
2022/11/02 09:30:25;;;;;;;7.57;2.22;;;;;;;18.50;83.45;101068.31;5041344;28;20249;-78
2022/11/02 09:32:55;;;;;;;5.10;2.37;;;;;;;18.72;79.81;101064.97;5039143;28;20225;-79
2022/11/02 09:35:22;;;;;;;7.07;2.17;;;;;;;19.03;74.93;101065.63;5042903;28;20440;-77
2022/11/02 09:37:50;;;;;;;6.63;2.37;;;;;;;19.08;74.12;101068.88;5043892;28;20553;-78
2022/11/02 09:40:21;;;;;;;8.50;2.10;;;;;;;19.29;71.94;101069.25;5040870;28;20764;-78
2022/11/02 09:42:58;;;;;;;6.30;1.90;;;;;;;19.67;67.71;101068.31;5039081;28;20432;-78
2022/11/02 09:45:26;;;;;;;5.83;2.90;;;;;;;19.48;68.38;101079.72;5040545;28;20454;-77
2022/11/02 09:47:58;;;;;;;6.87;2.33;;;;;;;18.56;73.89;101081.53;5040959;28;20504;-79
2022/11/02 09:50:28;;;;;;;8.27;2.07;;;;;;;18.59;72.11;101081.34;5045061;28;20524;-78
2022/11/02 09:53:00;;;;;;;9.50;2.93;;;;;;;18.23;75.32;101063.75;5039137;28;20441;-78
2022/11/02 09:55:32;;;;;;;4.87;1.80;;;;;;;18.10;72.64;101071.00;5045350;28;20475;-77
2022/11/02 09:58:03;;;;;;;3.93;1.87;;;;;;;18.03;74.71;101065.06;5050359;28;20806;-78
2022/11/02 10:00:35;;;;;;;6.90;2.40;;;;;;;18.49;71.84;101069.28;5048869;28;20914;-77
2022/11/02 10:03:13;;;;;;;3.83;1.37;;;;;;;18.46;71.22;101094.91;5048219;28;20451;-79
2022/11/02 10:05:44;;;;;;;8.77;1.50;;;;;;;18.70;69.52;101081.47;5048570;28;20421;-78
2022/11/02 10:08:25;;;;;;;7.47;2.30;;;;;;;18.48;68.72;101078.47;5041119;28;20476;-76
2022/11/02 10:11:03;;;;;;;5.10;1.87;;;;;;;17.92;72.81;101081.25;5039608;28;20948;-78
2022/11/02 10:13:37;;;;;;;5.97;1.97;;;;;;;17.83;72.14;101092.75;5039336;28;20500;-77
2022/11/02 10:16:09;;;;;;;5.67;2.47;;;;;;;17.72;72.49;101093.41;5042486;28;20474;-79
2022/11/02 10:18:37;;;;;;;4.15;1.33;;;;;;;18.05;70.16;101114.03;5039855;28;20503;-77
2022/11/02 10:21:08;;;;;;;7.13;1.98;;;;;;;18.04;71.11;101091.34;5040201;28;20618;-78
2022/11/02 10:23:40;;;;;;;5.80;1.73;;;;;;;18.22;70.48;101096.56;5043943;28;20228;-79
2022/11/02 10:26:09;;;;;;;6.47;2.17;;;;;;;17.55;73.48;101108.13;5043370;28;20216;-78
2022/11/02 10:28:39;;;;;;;9.53;2.30;;;;;;;17.54;75.41;101114.53;5038994;28;20534;-77
2022/11/02 10:31:20;;;;;;;7.95;2.42;;;;;;;17.62;73.91;101120.38;5036973;28;20520;-77
2022/11/02 10:33:46;;;;;;;6.93;2.30;;;;;;;16.60;81.44;101125.69;5037518;28;20212;-79
2022/11/02 10:36:25;;;;;;;6.80;1.90;;;;;;;16.29;84.14;101112.13;5036978;28;20225;-79
2022/11/02 10:39:07;;;;;;;6.90;2.40;;;;;;;15.97;84.80;101117.56;5038969;28;20228;-78
2022/11/02 10:41:51;;;;;;;8.52;1.88;;;;;;;15.91;88.83;101123.34;5036071;28;20209;-79
2022/11/02 10:44:44;;;;;;;7.55;2.25;;;;;;;16.17;85.07;101119.16;5036608;28;20187;-79
2022/11/02 10:47:16;;;;;;;7.88;2.30;;;;;;;17.38;71.73;101124.63;5001362;28;20205;-77
2022/11/02 10:50:06;;;;;;;5.50;1.70;;;;;;;17.58;70.46;101123.38;5012120;28;20233;-77
2022/11/02 10:52:36;;;;;;;6.85;2.65;;;;;;;17.11;71.82;101119.91;4973851;29;20208;-78
2022/11/02 10:55:07;;;;;;;6.03;2.15;;;;;;;16.73;73.93;101108.59;4959524;29;20208;-79
2022/11/02 10:57:38;;;;;;;5.45;2.60;;;;;;;17.87;66.89;101124.28;4959519;29;20260;-79
2022/11/02 11:00:25;;;;;;;4.90;1.83;;;;;;;18.49;61.78;101108.34;4959025;29;20240;-79
2022/11/02 11:03:10;;;;;;;8.13;2.37;;;;;;;17.92;68.27;101124.84;4958911;28;20758;-78
2022/11/02 11:05:55;;;;;;;9.10;1.70;;;;;;;18.02;66.07;101100.59;4957697;29;20443;-79
2022/11/02 11:08:29;;;;;;;6.87;2.40;;;;;;;17.81;66.86;101106.47;4956792;29;20447;-79
2022/11/02 11:11:10;;;;;;;5.82;2.00;;;;;;;18.79;61.64;101101.84;4958963;29;20454;-78
2022/11/02 11:13:37;;;;;;;5.80;2.37;;;;;;;20.19;56.78;101106.38;4964636;29;20260;-77
2022/11/02 11:16:05;;;;;;;4.03;1.93;;;;;;;20.37;52.41;101103.22;4969043;29;20606;-78
2022/11/02 11:18:32;;;;;;;6.63;1.63;;;;;;;19.72;56.41;101102.56;4971652;28;20448;-80
2022/11/02 11:20:59;;;;;;;7.17;1.90;;;;;;;19.65;55.79;101105.78;4961328;29;20965;-79
2022/11/02 11:23:26;;;;;;;6.43;1.50;;;;;;;19.49;53.50;101096.00;4962690;28;20566;-79
2022/11/02 11:25:59;;;;;;;7.83;1.57;;;;;;;20.40;51.09;101086.63;5001424;28;20541;-78
2022/11/02 11:28:28;;;;;;;6.40;1.33;;;;;;;19.96;50.98;101088.94;5003427;28;20505;-78
2022/11/02 11:31:11;;;;;;;4.90;1.53;;;;;;;20.01;52.29;101085.84;5019515;28;20504;-77
2022/11/02 11:33:50;;;;;;;4.53;1.40;;;;;;;19.62;52.00;101087.78;5016688;28;20432;-78
2022/11/02 11:36:23;;;;;;;4.57;1.40;;;;;;;19.20;52.82;101091.72;5015977;28;20491;-79
2022/11/02 11:38:52;;;;;;;4.47;2.00;;;;;;;20.26;49.78;101092.22;5016657;28;20545;-78
2022/11/02 11:41:35;;;;;;;6.50;1.83;;;;;;;20.60;48.88;101094.19;5016057;28;20819;-78
2022/11/02 11:44:04;;;;;;;4.30;1.30;;;;;;;20.53;48.04;101098.38;5019573;28;20429;-78
2022/11/02 11:46:42;;;;;;;5.97;2.00;;;;;;;20.31;50.16;101087.31;5017621;28;20473;-78
2022/11/02 11:49:21;;;;;;;5.50;1.50;;;;;;;20.31;50.37;101081.84;5015325;28;20514;-79